sensor_id;sensor_type;location;lat;lon;timestamp;pressure;altitude;pressure_sealevel;temperature;humidity
55540;BME280;41384;51.418;7.286;2023-08-01T00:01:23;98188.81;;;17.70;100.00
55540;BME280;41384;51.418;7.286;2023-08-01T00:03:48;98182.31;;;17.76;100.00
55540;BME280;41384;51.418;7.286;2023-08-01T00:06:13;98192.22;;;17.76;100.00
55540;BME280;41384;51.418;7.286;2023-08-01T00:08:39;98188.72;;;17.75;100.00
55540;BME280;41384;51.418;7.286;2023-08-01T00:11:04;98187.16;;;17.74;100.00
55540;BME280;41384;51.418;7.286;2023-08-01T00:13:29;98189.03;;;17.74;100.00
55540;BME280;41384;51.418;7.286;2023-08-01T00:15:54;98185.38;;;17.70;100.00
55540;BME280;41384;51.418;7.286;2023-08-01T00:18:20;98170.72;;;17.67;100.00
55540;BME280;41384;51.418;7.286;2023-08-01T00:20:45;98161.97;;;17.80;100.00
55540;BME280;41384;51.418;7.286;2023-08-01T00:23:10;98159.38;;;17.75;100.00
55540;BME280;41384;51.418;7.286;2023-08-01T00:25:36;98168.00;;;17.86;100.00
55540;BME280;41384;51.418;7.286;2023-08-01T00:28:01;98162.84;;;17.76;100.00
55540;BME280;41384;51.418;7.286;2023-08-01T00:30:26;98146.75;;;17.81;100.00
55540;BME280;41384;51.418;7.286;2023-08-01T00:32:52;98135.66;;;17.88;100.00
55540;BME280;41384;51.418;7.286;2023-08-01T00:35:17;98133.72;;;17.93;100.00
55540;BME280;41384;51.418;7.286;2023-08-01T00:37:42;98135.88;;;17.91;100.00
55540;BME280;41384;51.418;7.286;2023-08-01T00:40:08;98134.38;;;17.99;100.00
55540;BME280;41384;51.418;7.286;2023-08-01T00:42:36;98132.72;;;17.89;100.00
55540;BME280;41384;51.418;7.286;2023-08-01T00:45:02;98144.38;;;17.79;100.00
55540;BME280;41384;51.418;7.286;2023-08-01T00:47:27;98144.97;;;17.90;100.00
55540;BME280;41384;51.418;7.286;2023-08-01T00:49:52;98131.81;;;17.80;100.00
55540;BME280;41384;51.418;7.286;2023-08-01T00:52:18;98130.44;;;17.69;100.00
55540;BME280;41384;51.418;7.286;2023-08-01T00:54:43;98137.00;;;17.43;100.00
55540;BME280;41384;51.418;7.286;2023-08-01T00:57:09;98150.59;;;17.28;100.00
55540;BME280;41384;51.418;7.286;2023-08-01T00:59:35;98155.44;;;17.40;100.00
55540;BME280;41384;51.418;7.286;2023-08-01T01:02:00;98148.44;;;17.44;100.00
55540;BME280;41384;51.418;7.286;2023-08-01T01:04:26;98139.94;;;17.42;100.00
55540;BME280;41384;51.418;7.286;2023-08-01T01:07:03;98139.50;;;17.54;100.00
55540;BME280;41384;51.418;7.286;2023-08-01T01:09:30;98140.25;;;17.54;100.00
55540;BME280;41384;51.418;7.286;2023-08-01T01:11:59;98128.50;;;17.41;100.00
55540;BME280;41384;51.418;7.286;2023-08-01T01:14:26;98124.75;;;17.42;100.00
55540;BME280;41384;51.418;7.286;2023-08-01T01:16:51;98123.56;;;17.48;100.00
55540;BME280;41384;51.418;7.286;2023-08-01T01:19:17;98118.59;;;17.42;100.00
55540;BME280;41384;51.418;7.286;2023-08-01T01:21:42;98112.09;;;17.34;100.00
55540;BME280;41384;51.418;7.286;2023-08-01T01:24:09;98119.03;;;17.49;100.00
55540;BME280;41384;51.418;7.286;2023-08-01T01:26:36;98115.97;;;17.56;100.00
55540;BME280;41384;51.418;7.286;2023-08-01T01:29:04;98119.16;;;17.58;100.00
55540;BME280;41384;51.418;7.286;2023-08-01T01:31:31;98104.78;;;17.40;100.00
55540;BME280;41384;51.418;7.286;2023-08-01T01:33:57;98101.06;;;17.55;100.00
55540;BME280;41384;51.418;7.286;2023-08-01T01:36:22;98094.06;;;17.59;100.00
55540;BME280;41384;51.418;7.286;2023-08-01T01:38:48;98098.66;;;17.53;100.00
55540;BME280;41384;51.418;7.286;2023-08-01T01:41:13;98094.53;;;17.61;100.00
55540;BME280;41384;51.418;7.286;2023-08-01T01:43:38;98091.50;;;17.68;100.00
55540;BME280;41384;51.418;7.286;2023-08-01T01:46:04;98092.16;;;17.59;100.00
55540;BME280;41384;51.418;7.286;2023-08-01T01:48:29;98083.38;;;17.59;100.00
55540;BME280;41384;51.418;7.286;2023-08-01T01:50:54;98066.56;;;17.58;100.00
55540;BME280;41384;51.418;7.286;2023-08-01T01:53:20;98062.91;;;17.54;100.00
55540;BME280;41384;51.418;7.286;2023-08-01T01:55:45;98064.50;;;17.55;100.00
55540;BME280;41384;51.418;7.286;2023-08-01T01:58:10;98073.00;;;17.57;100.00
55540;BME280;41384;51.418;7.286;2023-08-01T02:00:35;98078.31;;;17.43;100.00
55540;BME280;41384;51.418;7.286;2023-08-01T02:03:01;98078.91;;;17.54;100.00
55540;BME280;41384;51.418;7.286;2023-08-01T02:05:28;98076.66;;;17.47;100.00
55540;BME280;41384;51.418;7.286;2023-08-01T02:07:54;98068.06;;;17.50;100.00
55540;BME280;41384;51.418;7.286;2023-08-01T02:10:19;98069.06;;;17.55;100.00
55540;BME280;41384;51.418;7.286;2023-08-01T02:12:44;98058.88;;;17.57;100.00
55540;BME280;41384;51.418;7.286;2023-08-01T02:15:09;98067.47;;;17.54;100.00
55540;BME280;41384;51.418;7.286;2023-08-01T02:17:35;98076.25;;;17.54;100.00
55540;BME280;41384;51.418;7.286;2023-08-01T02:20:00;98073.97;;;17.61;100.00
55540;BME280;41384;51.418;7.286;2023-08-01T02:22:25;98083.75;;;17.52;100.00
55540;BME280;41384;51.418;7.286;2023-08-01T02:24:51;98075.06;;;17.46;100.00
55540;BME280;41384;51.418;7.286;2023-08-01T02:27:17;98072.00;;;17.53;100.00
55540;BME280;41384;51.418;7.286;2023-08-01T02:29:42;98078.78;;;17.31;100.00
55540;BME280;41384;51.418;7.286;2023-08-01T02:32:07;98068.47;;;17.11;100.00
55540;BME280;41384;51.418;7.286;2023-08-01T02:34:33;98076.25;;;17.07;100.00
55540;BME280;41384;51.418;7.286;2023-08-01T02:36:58;98071.06;;;16.97;100.00
55540;BME280;41384;51.418;7.286;2023-08-01T02:39:23;98080.91;;;17.01;100.00
55540;BME280;41384;51.418;7.286;2023-08-01T02:41:49;98084.84;;;17.04;100.00
55540;BME280;41384;51.418;7.286;2023-08-01T02:44:15;98086.06;;;16.92;100.00
55540;BME280;41384;51.418;7.286;2023-08-01T02:46:41;98078.53;;;16.81;100.00
55540;BME280;41384;51.418;7.286;2023-08-01T02:49:06;98081.72;;;16.77;100.00
55540;BME280;41384;51.418;7.286;2023-08-01T02:51:31;98091.19;;;16.89;100.00
55540;BME280;41384;51.418;7.286;2023-08-01T02:53:56;98097.88;;;16.86;100.00
55540;BME280;41384;51.418;7.286;2023-08-01T02:56:22;98094.78;;;16.98;100.00
55540;BME280;41384;51.418;7.286;2023-08-01T02:58:47;98086.81;;;16.98;100.00
55540;BME280;41384;51.418;7.286;2023-08-01T03:01:12;98089.09;;;17.05;100.00
55540;BME280;41384;51.418;7.286;2023-08-01T03:03:38;98088.50;;;17.08;100.00
55540;BME280;41384;51.418;7.286;2023-08-01T03:06:04;98088.91;;;17.15;100.00
55540;BME280;41384;51.418;7.286;2023-08-01T03:08:29;98085.34;;;17.06;100.00
55540;BME280;41384;51.418;7.286;2023-08-01T03:10:54;98092.25;;;17.07;100.00
55540;BME280;41384;51.418;7.286;2023-08-01T03:13:20;98085.25;;;17.11;100.00
55540;BME280;41384;51.418;7.286;2023-08-01T03:15:45;98087.59;;;16.99;100.00
55540;BME280;41384;51.418;7.286;2023-08-01T03:18:11;98084.38;;;17.16;100.00
55540;BME280;41384;51.418;7.286;2023-08-01T03:20:36;98090.00;;;17.14;100.00
55540;BME280;41384;51.418;7.286;2023-08-01T03:23:02;98089.50;;;17.12;100.00
55540;BME280;41384;51.418;7.286;2023-08-01T03:25:27;98092.75;;;17.09;100.00
55540;BME280;41384;51.418;7.286;2023-08-01T03:27:52;98096.63;;;17.17;100.00
55540;BME280;41384;51.418;7.286;2023-08-01T03:30:19;98090.16;;;17.04;100.00
55540;BME280;41384;51.418;7.286;2023-08-01T03:32:46;98093.47;;;17.15;100.00
55540;BME280;41384;51.418;7.286;2023-08-01T03:35:11;98107.56;;;17.15;100.00
55540;BME280;41384;51.418;7.286;2023-08-01T03:37:36;98096.56;;;17.03;100.00
55540;BME280;41384;51.418;7.286;2023-08-01T03:40:03;98102.41;;;17.05;100.00
55540;BME280;41384;51.418;7.286;2023-08-01T03:42:28;98104.56;;;17.03;100.00
55540;BME280;41384;51.418;7.286;2023-08-01T03:44:54;98107.47;;;17.06;100.00
55540;BME280;41384;51.418;7.286;2023-08-01T03:47:19;98111.63;;;17.13;100.00
55540;BME280;41384;51.418;7.286;2023-08-01T03:49:45;98105.69;;;16.97;100.00
55540;BME280;41384;51.418;7.286;2023-08-01T03:52:10;98113.78;;;16.91;100.00
55540;BME280;41384;51.418;7.286;2023-08-01T03:54:35;98114.78;;;16.96;100.00
55540;BME280;41384;51.418;7.286;2023-08-01T03:57:00;98121.22;;;17.14;100.00
55540;BME280;41384;51.418;7.286;2023-08-01T03:59:27;98120.66;;;16.98;100.00
55540;BME280;41384;51.418;7.286;2023-08-01T04:01:52;98123.81;;;16.81;100.00
55540;BME280;41384;51.418;7.286;2023-08-01T04:04:18;98131.00;;;16.80;100.00
55540;BME280;41384;51.418;7.286;2023-08-01T04:06:43;98128.84;;;16.82;100.00
55540;BME280;41384;51.418;7.286;2023-08-01T04:09:08;98128.69;;;16.73;100.00
55540;BME280;41384;51.418;7.286;2023-08-01T04:11:33;98128.31;;;16.61;100.00
55540;BME280;41384;51.418;7.286;2023-08-01T04:13:59;98141.38;;;16.62;100.00
55540;BME280;41384;51.418;7.286;2023-08-01T04:16:24;98139.84;;;16.75;100.00
55540;BME280;41384;51.418;7.286;2023-08-01T04:18:49;98150.81;;;16.74;100.00
55540;BME280;41384;51.418;7.286;2023-08-01T04:21:15;98144.03;;;16.62;100.00
55540;BME280;41384;51.418;7.286;2023-08-01T04:23:41;98142.47;;;16.81;100.00
55540;BME280;41384;51.418;7.286;2023-08-01T04:26:06;98135.31;;;16.76;100.00
55540;BME280;41384;51.418;7.286;2023-08-01T04:28:32;98145.03;;;16.67;100.00
55540;BME280;41384;51.418;7.286;2023-08-01T04:30:58;98150.94;;;16.63;100.00
55540;BME280;41384;51.418;7.286;2023-08-01T04:33:23;98135.75;;;16.64;100.00
55540;BME280;41384;51.418;7.286;2023-08-01T04:35:48;98157.22;;;16.73;100.00
55540;BME280;41384;51.418;7.286;2023-08-01T04:38:14;98157.66;;;16.80;100.00
55540;BME280;41384;51.418;7.286;2023-08-01T04:40:40;98147.84;;;16.75;100.00
55540;BME280;41384;51.418;7.286;2023-08-01T04:43:05;98149.22;;;16.73;100.00
55540;BME280;41384;51.418;7.286;2023-08-01T04:45:31;98145.03;;;16.67;100.00
55540;BME280;41384;51.418;7.286;2023-08-01T04:47:56;98151.22;;;16.43;100.00
55540;BME280;41384;51.418;7.286;2023-08-01T04:50:21;98151.28;;;16.57;100.00
55540;BME280;41384;51.418;7.286;2023-08-01T04:52:47;98152.38;;;16.75;100.00
55540;BME280;41384;51.418;7.286;2023-08-01T04:55:12;98144.75;;;16.87;100.00
55540;BME280;41384;51.418;7.286;2023-08-01T04:57:37;98148.88;;;16.99;100.00
55540;BME280;41384;51.418;7.286;2023-08-01T05:00:03;98155.25;;;16.78;100.00
55540;BME280;41384;51.418;7.286;2023-08-01T05:02:29;98152.31;;;16.80;100.00
55540;BME280;41384;51.418;7.286;2023-08-01T05:04:54;98158.78;;;16.74;100.00
55540;BME280;41384;51.418;7.286;2023-08-01T05:07:19;98154.97;;;16.80;100.00
55540;BME280;41384;51.418;7.286;2023-08-01T05:09:45;98157.28;;;16.87;100.00
55540;BME280;41384;51.418;7.286;2023-08-01T05:12:10;98156.41;;;16.91;100.00
55540;BME280;41384;51.418;7.286;2023-08-01T05:14:35;98158.72;;;16.79;100.00
55540;BME280;41384;51.418;7.286;2023-08-01T05:17:01;98167.66;;;16.88;100.00
55540;BME280;41384;51.418;7.286;2023-08-01T05:19:26;98165.88;;;16.84;100.00
55540;BME280;41384;51.418;7.286;2023-08-01T05:21:51;98171.44;;;17.06;100.00
55540;BME280;41384;51.418;7.286;2023-08-01T05:24:17;98172.03;;;16.79;100.00
55540;BME280;41384;51.418;7.286;2023-08-01T05:26:42;98175.72;;;16.83;100.00
55540;BME280;41384;51.418;7.286;2023-08-01T05:29:07;98174.34;;;16.67;100.00
55540;BME280;41384;51.418;7.286;2023-08-01T05:31:33;98175.13;;;16.67;100.00
55540;BME280;41384;51.418;7.286;2023-08-01T05:33:58;98175.72;;;16.83;100.00
55540;BME280;41384;51.418;7.286;2023-08-01T05:36:23;98184.69;;;16.68;100.00
55540;BME280;41384;51.418;7.286;2023-08-01T05:38:48;98181.13;;;16.78;100.00
55540;BME280;41384;51.418;7.286;2023-08-01T05:41:14;98180.81;;;16.60;100.00
55540;BME280;41384;51.418;7.286;2023-08-01T05:43:39;98182.28;;;16.72;100.00
55540;BME280;41384;51.418;7.286;2023-08-01T05:46:04;98190.47;;;16.75;100.00
55540;BME280;41384;51.418;7.286;2023-08-01T05:48:30;98200.09;;;16.71;100.00
55540;BME280;41384;51.418;7.286;2023-08-01T05:50:55;98194.78;;;16.52;100.00
55540;BME280;41384;51.418;7.286;2023-08-01T05:53:21;98193.34;;;16.60;100.00
55540;BME280;41384;51.418;7.286;2023-08-01T05:55:47;98202.94;;;16.80;100.00
55540;BME280;41384;51.418;7.286;2023-08-01T05:58:12;98198.97;;;16.58;100.00
55540;BME280;41384;51.418;7.286;2023-08-01T06:00:37;98187.38;;;16.68;100.00
55540;BME280;41384;51.418;7.286;2023-08-01T06:03:03;98194.00;;;16.71;100.00
55540;BME280;41384;51.418;7.286;2023-08-01T06:05:28;98200.84;;;16.77;100.00
55540;BME280;41384;51.418;7.286;2023-08-01T06:07:53;98194.88;;;16.85;100.00
55540;BME280;41384;51.418;7.286;2023-08-01T06:10:19;98191.28;;;16.76;100.00
55540;BME280;41384;51.418;7.286;2023-08-01T06:12:44;98205.38;;;16.96;100.00
55540;BME280;41384;51.418;7.286;2023-08-01T06:15:09;98196.19;;;16.88;100.00
55540;BME280;41384;51.418;7.286;2023-08-01T06:17:35;98204.38;;;16.91;100.00
55540;BME280;41384;51.418;7.286;2023-08-01T06:20:00;98193.22;;;16.89;100.00
55540;BME280;41384;51.418;7.286;2023-08-01T06:22:29;98205.59;;;16.80;100.00
55540;BME280;41384;51.418;7.286;2023-08-01T06:24:54;98203.75;;;16.81;100.00
55540;BME280;41384;51.418;7.286;2023-08-01T06:27:20;98201.94;;;16.95;100.00
55540;BME280;41384;51.418;7.286;2023-08-01T06:29:45;98211.84;;;17.14;100.00
55540;BME280;41384;51.418;7.286;2023-08-01T06:32:10;98210.97;;;16.99;100.00
55540;BME280;41384;51.418;7.286;2023-08-01T06:34:36;98200.31;;;16.99;100.00
55540;BME280;41384;51.418;7.286;2023-08-01T06:37:01;98211.94;;;16.84;100.00
55540;BME280;41384;51.418;7.286;2023-08-01T06:39:27;98208.63;;;16.92;100.00
55540;BME280;41384;51.418;7.286;2023-08-01T06:41:52;98200.44;;;17.08;100.00
55540;BME280;41384;51.418;7.286;2023-08-01T06:44:17;98208.78;;;17.20;100.00
55540;BME280;41384;51.418;7.286;2023-08-01T06:46:43;98205.63;;;17.18;100.00
55540;BME280;41384;51.418;7.286;2023-08-01T06:49:08;98207.00;;;17.16;100.00
55540;BME280;41384;51.418;7.286;2023-08-01T06:51:33;98210.97;;;16.99;100.00
55540;BME280;41384;51.418;7.286;2023-08-01T06:53:59;98206.66;;;17.03;100.00
55540;BME280;41384;51.418;7.286;2023-08-01T06:56:24;98207.84;;;16.92;100.00
55540;BME280;41384;51.418;7.286;2023-08-01T06:58:49;98206.97;;;16.97;100.00
55540;BME280;41384;51.418;7.286;2023-08-01T07:01:15;98210.59;;;17.06;100.00
55540;BME280;41384;51.418;7.286;2023-08-01T07:03:40;98213.47;;;16.90;100.00
55540;BME280;41384;51.418;7.286;2023-08-01T07:06:06;98216.44;;;17.08;100.00
55540;BME280;41384;51.418;7.286;2023-08-01T07:08:31;98217.09;;;17.19;100.00
55540;BME280;41384;51.418;7.286;2023-08-01T07:10:57;98213.00;;;17.27;100.00
55540;BME280;41384;51.418;7.286;2023-08-01T07:13:22;98219.34;;;17.31;100.00
55540;BME280;41384;51.418;7.286;2023-08-01T07:15:50;98223.09;;;17.30;100.00
55540;BME280;41384;51.418;7.286;2023-08-01T07:18:15;98226.03;;;17.28;100.00
55540;BME280;41384;51.418;7.286;2023-08-01T07:20:41;98226.94;;;17.18;100.00
55540;BME280;41384;51.418;7.286;2023-08-01T07:23:06;98231.28;;;17.33;100.00
55540;BME280;41384;51.418;7.286;2023-08-01T07:25:31;98224.44;;;17.27;100.00
55540;BME280;41384;51.418;7.286;2023-08-01T07:27:57;98222.84;;;17.26;100.00
55540;BME280;41384;51.418;7.286;2023-08-01T07:30:22;98225.66;;;17.35;100.00
55540;BME280;41384;51.418;7.286;2023-08-01T07:32:48;98230.63;;;17.42;100.00
55540;BME280;41384;51.418;7.286;2023-08-01T07:35:13;98238.34;;;17.43;100.00
55540;BME280;41384;51.418;7.286;2023-08-01T07:37:38;98236.53;;;17.39;100.00
55540;BME280;41384;51.418;7.286;2023-08-01T07:40:08;98238.63;;;17.23;100.00
55540;BME280;41384;51.418;7.286;2023-08-01T07:42:33;98241.94;;;17.14;100.00
55540;BME280;41384;51.418;7.286;2023-08-01T07:44:58;98243.84;;;17.33;100.00
55540;BME280;41384;51.418;7.286;2023-08-01T07:47:24;98243.44;;;17.40;100.00
55540;BME280;41384;51.418;7.286;2023-08-01T07:49:49;98247.63;;;17.46;100.00
55540;BME280;41384;51.418;7.286;2023-08-01T07:52:15;98240.88;;;17.34;100.00
55540;BME280;41384;51.418;7.286;2023-08-01T07:54:40;98249.25;;;17.28;100.00
55540;BME280;41384;51.418;7.286;2023-08-01T07:57:06;98246.38;;;17.57;100.00
55540;BME280;41384;51.418;7.286;2023-08-01T07:59:31;98239.59;;;17.65;100.00
55540;BME280;41384;51.418;7.286;2023-08-01T08:01:56;98246.69;;;17.56;100.00
55540;BME280;41384;51.418;7.286;2023-08-01T08:04:22;98249.03;;;17.57;100.00
55540;BME280;41384;51.418;7.286;2023-08-01T08:06:47;98249.84;;;17.58;100.00
55540;BME280;41384;51.418;7.286;2023-08-01T08:09:12;98264.28;;;17.57;100.00
55540;BME280;41384;51.418;7.286;2023-08-01T08:11:38;98253.69;;;17.52;100.00
55540;BME280;41384;51.418;7.286;2023-08-01T08:14:03;98258.53;;;17.49;100.00
55540;BME280;41384;51.418;7.286;2023-08-01T08:16:29;98258.75;;;17.34;100.00
55540;BME280;41384;51.418;7.286;2023-08-01T08:18:54;98254.13;;;17.40;100.00
55540;BME280;41384;51.418;7.286;2023-08-01T08:21:19;98253.69;;;17.32;100.00
55540;BME280;41384;51.418;7.286;2023-08-01T08:23:45;98252.47;;;17.44;100.00
55540;BME280;41384;51.418;7.286;2023-08-01T08:26:10;98252.22;;;17.59;100.00
55540;BME280;41384;51.418;7.286;2023-08-01T08:28:36;98250.63;;;17.58;100.00
55540;BME280;41384;51.418;7.286;2023-08-01T08:31:01;98257.56;;;17.59;100.00
55540;BME280;41384;51.418;7.286;2023-08-01T08:33:28;98264.63;;;17.69;100.00
55540;BME280;41384;51.418;7.286;2023-08-01T08:35:53;98257.84;;;17.77;100.00
55540;BME280;41384;51.418;7.286;2023-08-01T08:38:19;98265.53;;;17.78;100.00
55540;BME280;41384;51.418;7.286;2023-08-01T08:41:08;98258.63;;;17.58;100.00
55540;BME280;41384;51.418;7.286;2023-08-01T08:43:34;98254.00;;;17.97;100.00
55540;BME280;41384;51.418;7.286;2023-08-01T08:46:01;98266.63;;;18.11;100.00
55540;BME280;41384;51.418;7.286;2023-08-01T08:48:28;98261.69;;;18.04;100.00
55540;BME280;41384;51.418;7.286;2023-08-01T08:50:54;98259.00;;;18.04;100.00
55540;BME280;41384;51.418;7.286;2023-08-01T08:53:22;98257.75;;;18.15;100.00
55540;BME280;41384;51.418;7.286;2023-08-01T08:55:47;98259.25;;;18.35;100.00
55540;BME280;41384;51.418;7.286;2023-08-01T08:58:13;98266.84;;;18.42;100.00
55540;BME280;41384;51.418;7.286;2023-08-01T09:00:38;98258.16;;;18.22;100.00
55540;BME280;41384;51.418;7.286;2023-08-01T09:03:05;98258.59;;;18.11;100.00
55540;BME280;41384;51.418;7.286;2023-08-01T09:05:34;98264.75;;;18.11;100.00
55540;BME280;41384;51.418;7.286;2023-08-01T09:08:04;98270.63;;;17.94;100.00
55540;BME280;41384;51.418;7.286;2023-08-01T09:10:32;98270.69;;;17.89;100.00
55540;BME280;41384;51.418;7.286;2023-08-01T09:12:58;98265.78;;;17.96;100.00
55540;BME280;41384;51.418;7.286;2023-08-01T09:15:25;98276.03;;;17.89;100.00
55540;BME280;41384;51.418;7.286;2023-08-01T09:17:54;98271.59;;;17.98;100.00
55540;BME280;41384;51.418;7.286;2023-08-01T09:20:21;98266.63;;;18.11;100.00
55540;BME280;41384;51.418;7.286;2023-08-01T09:22:47;98273.38;;;18.22;100.00
55540;BME280;41384;51.418;7.286;2023-08-01T09:25:12;98269.63;;;18.23;100.00
55540;BME280;41384;51.418;7.286;2023-08-01T09:27:38;98279.63;;;18.31;100.00
55540;BME280;41384;51.418;7.286;2023-08-01T09:30:13;98274.13;;;18.56;100.00
55540;BME280;41384;51.418;7.286;2023-08-01T09:32:53;98266.66;;;18.80;100.00
55540;BME280;41384;51.418;7.286;2023-08-01T09:35:18;98272.69;;;18.86;100.00
55540;BME280;41384;51.418;7.286;2023-08-01T09:37:43;98267.44;;;18.95;100.00
55540;BME280;41384;51.418;7.286;2023-08-01T09:40:09;98290.63;;;18.86;98.28
55540;BME280;41384;51.418;7.286;2023-08-01T09:42:42;98270.50;;;18.88;96.97
55540;BME280;41384;51.418;7.286;2023-08-01T09:45:15;98278.34;;;18.85;95.63
55540;BME280;41384;51.418;7.286;2023-08-01T09:47:42;98281.00;;;18.99;96.74
55540;BME280;41384;51.418;7.286;2023-08-01T09:50:12;98280.34;;;19.07;94.26
55540;BME280;41384;51.418;7.286;2023-08-01T09:52:45;98272.94;;;19.27;94.15
55540;BME280;41384;51.418;7.286;2023-08-01T09:55:17;98275.41;;;19.37;92.39
55540;BME280;41384;51.418;7.286;2023-08-01T09:57:46;98274.91;;;19.58;91.68
55540;BME280;41384;51.418;7.286;2023-08-01T10:00:14;98265.75;;;19.73;89.33
55540;BME280;41384;51.418;7.286;2023-08-01T10:02:42;98265.13;;;19.76;85.03
55540;BME280;41384;51.418;7.286;2023-08-01T10:05:08;98265.75;;;19.73;87.46
55540;BME280;41384;51.418;7.286;2023-08-01T10:07:35;98261.41;;;19.86;87.08
55540;BME280;41384;51.418;7.286;2023-08-01T10:10:04;98261.28;;;19.68;87.15
55540;BME280;41384;51.418;7.286;2023-08-01T10:12:31;98269.19;;;19.73;86.87
55540;BME280;41384;51.418;7.286;2023-08-01T10:14:56;98276.56;;;19.67;87.56
55540;BME280;41384;51.418;7.286;2023-08-01T10:17:23;98297.06;;;19.49;87.90
55540;BME280;41384;51.418;7.286;2023-08-01T10:19:49;98306.66;;;19.14;100.00
55540;BME280;41384;51.418;7.286;2023-08-01T10:22:17;98293.69;;;18.65;100.00
55540;BME280;41384;51.418;7.286;2023-08-01T10:24:43;98284.88;;;18.64;100.00
55540;BME280;41384;51.418;7.286;2023-08-01T10:29:38;98283.59;;;18.62;100.00
55540;BME280;41384;51.418;7.286;2023-08-01T10:32:06;98285.47;;;18.75;100.00
55540;BME280;41384;51.418;7.286;2023-08-01T10:34:31;98282.78;;;18.89;100.00
55540;BME280;41384;51.418;7.286;2023-08-01T10:36:58;98279.72;;;18.96;100.00
55540;BME280;41384;51.418;7.286;2023-08-01T10:39:25;98281.03;;;18.85;100.00
55540;BME280;41384;51.418;7.286;2023-08-01T10:42:01;98287.72;;;18.96;100.00
55540;BME280;41384;51.418;7.286;2023-08-01T10:44:27;98279.78;;;19.19;100.00
55540;BME280;41384;51.418;7.286;2023-08-01T10:46:59;98271.75;;;19.33;100.00
55540;BME280;41384;51.418;7.286;2023-08-01T10:49:40;98271.88;;;19.50;100.00
55540;BME280;41384;51.418;7.286;2023-08-01T10:54:59;98275.41;;;19.60;100.00
55540;BME280;41384;51.418;7.286;2023-08-01T10:57:27;98275.66;;;19.72;100.00
55540;BME280;41384;51.418;7.286;2023-08-01T10:59:54;98284.84;;;19.80;100.00
55540;BME280;41384;51.418;7.286;2023-08-01T11:02:22;98287.16;;;19.73;100.00
55540;BME280;41384;51.418;7.286;2023-08-01T11:04:59;98279.28;;;19.53;97.00
55540;BME280;41384;51.418;7.286;2023-08-01T11:07:24;98282.69;;;19.45;99.28
55540;BME280;41384;51.418;7.286;2023-08-01T11:12:30;98299.22;;;19.10;98.61
55540;BME280;41384;51.418;7.286;2023-08-01T11:15:03;98313.63;;;19.01;100.00
55540;BME280;41384;51.418;7.286;2023-08-01T11:17:29;98319.03;;;18.67;100.00
55540;BME280;41384;51.418;7.286;2023-08-01T11:20:05;98333.56;;;18.61;100.00
55540;BME280;41384;51.418;7.286;2023-08-01T11:22:31;98324.06;;;18.55;100.00
55540;BME280;41384;51.418;7.286;2023-08-01T11:24:56;98331.81;;;18.57;100.00
55540;BME280;41384;51.418;7.286;2023-08-01T11:27:22;98350.09;;;18.63;100.00
55540;BME280;41384;51.418;7.286;2023-08-01T11:29:47;98346.06;;;18.66;100.00
55540;BME280;41384;51.418;7.286;2023-08-01T11:32:12;98336.63;;;18.69;100.00
55540;BME280;41384;51.418;7.286;2023-08-01T11:34:42;98342.69;;;18.74;100.00
55540;BME280;41384;51.418;7.286;2023-08-01T11:37:12;98350.00;;;18.69;100.00
55540;BME280;41384;51.418;7.286;2023-08-01T11:39:37;98368.81;;;18.63;100.00
55540;BME280;41384;51.418;7.286;2023-08-01T11:42:03;98370.34;;;18.36;100.00
55540;BME280;41384;51.418;7.286;2023-08-01T11:44:29;98365.09;;;18.45;100.00
55540;BME280;41384;51.418;7.286;2023-08-01T11:46:55;98366.47;;;18.29;100.00
55540;BME280;41384;51.418;7.286;2023-08-01T11:49:20;98368.16;;;18.38;100.00
55540;BME280;41384;51.418;7.286;2023-08-01T11:51:46;98358.44;;;18.15;100.00
55540;BME280;41384;51.418;7.286;2023-08-01T11:54:12;98361.16;;;17.90;100.00
55540;BME280;41384;51.418;7.286;2023-08-01T11:56:39;98357.47;;;18.05;100.00
55540;BME280;41384;51.418;7.286;2023-08-01T12:01:38;98357.94;;;18.27;100.00
55540;BME280;41384;51.418;7.286;2023-08-01T12:04:04;98374.56;;;18.23;100.00
55540;BME280;41384;51.418;7.286;2023-08-01T12:06:31;98375.63;;;18.56;100.00
55540;BME280;41384;51.418;7.286;2023-08-01T12:09:07;98373.53;;;18.52;100.00
55540;BME280;41384;51.418;7.286;2023-08-01T12:11:32;98380.19;;;18.55;100.00
55540;BME280;41384;51.418;7.286;2023-08-01T12:14:13;98377.53;;;18.69;100.00
55540;BME280;41384;51.418;7.286;2023-08-01T12:16:41;98385.16;;;18.62;100.00
55540;BME280;41384;51.418;7.286;2023-08-01T12:19:08;98382.28;;;18.72;100.00
55540;BME280;41384;51.418;7.286;2023-08-01T12:21:35;98385.44;;;18.60;100.00
55540;BME280;41384;51.418;7.286;2023-08-01T12:24:01;98389.00;;;18.56;100.00
55540;BME280;41384;51.418;7.286;2023-08-01T12:26:27;98394.91;;;18.52;100.00
55540;BME280;41384;51.418;7.286;2023-08-01T12:28:52;98392.34;;;18.61;100.00
55540;BME280;41384;51.418;7.286;2023-08-01T12:31:19;98392.53;;;18.51;100.00
55540;BME280;41384;51.418;7.286;2023-08-01T12:33:45;98388.69;;;18.57;100.00
55540;BME280;41384;51.418;7.286;2023-08-01T12:36:10;98389.91;;;18.65;100.00
55540;BME280;41384;51.418;7.286;2023-08-01T12:38:36;98397.25;;;18.73;100.00
55540;BME280;41384;51.418;7.286;2023-08-01T12:41:01;98399.50;;;18.80;100.00
55540;BME280;41384;51.418;7.286;2023-08-01T12:43:27;98404.44;;;18.73;100.00
55540;BME280;41384;51.418;7.286;2023-08-01T12:45:52;98396.56;;;18.81;100.00
55540;BME280;41384;51.418;7.286;2023-08-01T12:48:18;98395.81;;;19.09;100.00
55540;BME280;41384;51.418;7.286;2023-08-01T12:50:46;98402.53;;;19.20;100.00
55540;BME280;41384;51.418;7.286;2023-08-01T12:53:13;98396.97;;;19.31;100.00
55540;BME280;41384;51.418;7.286;2023-08-01T12:55:42;98400.75;;;19.30;100.00